McGaheysville, Virginia
Current Conditions -  °F | °C
As of 1:15 AM on Sunday 26 Oct 2014 (Local Time) from KSHD Reporting Station
Broken Clouds Broken Clouds  
Wind Chill: 57°   Ceiling: 6000
Heat Index: 57°   Visibility: 10mi
Dew Point: 47°   Wind: 6mph
Humidity: 69%   Direction: 240°WSW
Pressure: 29.78"   Gusts: NA
Location:  38.37°N, 78.73°W
Report Text: KSHD 260515Z AUTO 24005KT 10SM BKN060 14/08 A2978 RMK AO2 T01370081
Loading
Personal Weather Stations






























Interactive Weather Map New forecast layout! Learn more

10-Day Weather Forecast

Advertisements
Track Severe Weather on mobile